Time;durP1;ratioP1;P1;durP2;ratioP2;P2;SDS_P1;SDS_P2;PMS_P1;PMS_P2;Temp;Humidity;BMP_temperature;BMP_pressure;BME280_temperature;BME280_humidity;BME280_pressure;Samples;Min_cycle;Max_cycle;Signal;HPM_P1;HPM_P2
2022/09/18 00:01:28;;;;;;;10.95;1.90;;;10.40;99.90;;;;;;5114176;28;20135;-62
2022/09/18 00:03:58;;;;;;;11.65;1.98;;;10.40;99.90;;;;;;5114246;28;20126;-61
2022/09/18 00:06:27;;;;;;;13.00;2.88;;;10.40;99.90;;;;;;5114310;28;20444;-61
2022/09/18 00:08:54;;;;;;;12.82;1.65;;;10.50;99.90;;;;;;5114147;28;20044;-62
2022/09/18 00:11:22;;;;;;;11.02;1.60;;;10.30;99.90;;;;;;5114032;28;20047;-63
2022/09/18 00:13:49;;;;;;;10.60;1.38;;;10.40;99.90;;;;;;5095798;28;20040;-61
2022/09/18 00:16:16;;;;;;;11.85;1.80;;;10.40;99.90;;;;;;5113975;28;20031;-60
2022/09/18 00:18:42;;;;;;;12.95;2.15;;;10.40;99.90;;;;;;5113829;28;20031;-61
2022/09/18 00:21:12;;;;;;;8.93;1.70;;;10.50;99.90;;;;;;5113964;28;20044;-61
2022/09/18 00:23:38;;;;;;;12.25;1.92;;;10.50;99.90;;;;;;5113711;28;20043;-61
2022/09/18 00:26:05;;;;;;;10.30;1.50;;;10.70;99.90;;;;;;5095824;28;20039;-61
2022/09/18 00:28:31;;;;;;;8.20;1.85;;;10.70;99.90;;;;;;5113428;28;20065;-62
2022/09/18 00:31:26;;;;;;;7.40;1.30;;;10.70;99.90;;;;;;5113628;28;20036;-61
2022/09/18 00:33:52;;;;;;;10.88;1.30;;;10.70;99.90;;;;;;5110695;28;20105;-62
2022/09/18 00:36:19;;;;;;;11.13;1.60;;;10.70;99.90;;;;;;5113500;28;20495;-61
2022/09/18 00:38:45;;;;;;;8.75;1.67;;;10.70;99.90;;;;;;5100000;28;20545;-61
2022/09/18 00:41:18;;;;;;;12.25;1.58;;;10.60;99.90;;;;;;5103816;28;20047;-62
2022/09/18 00:43:44;;;;;;;9.55;1.67;;;10.60;99.90;;;;;;5113621;28;20500;-62
2022/09/18 00:46:27;;;;;;;11.45;1.80;;;10.70;99.90;;;;;;5113253;28;20533;-62
2022/09/18 00:49:25;;;;;;;15.65;1.80;;;10.70;99.90;;;;;;5112871;28;20040;-62
2022/09/18 00:51:54;;;;;;;8.75;1.50;;;10.70;99.90;;;;;;5108077;28;20467;-61
2022/09/18 00:54:34;;;;;;;10.38;1.30;;;10.70;99.90;;;;;;5112939;28;20047;-61
2022/09/18 00:57:22;;;;;;;14.10;2.05;;;10.70;99.90;;;;;;5113160;28;20044;-62
2022/09/18 00:59:50;;;;;;;9.27;1.02;;;10.70;99.90;;;;;;5113076;28;20044;-62
2022/09/18 01:02:15;;;;;;;12.57;2.40;;;10.60;99.90;;;;;;5095071;28;20425;-62
2022/09/18 01:04:41;;;;;;;8.77;1.30;;;10.70;99.90;;;;;;5113458;28;20044;-62
2022/09/18 01:07:33;;;;;;;15.10;1.30;;;10.60;99.90;;;;;;5112848;28;20040;-62
2022/09/18 01:10:25;;;;;;;14.35;1.80;;;10.50;99.90;;;;;;5112965;28;20081;-62
2022/09/18 01:12:59;;;;;;;9.52;1.25;;;10.50;99.90;;;;;;5112983;28;20038;-62
2022/09/18 01:15:33;;;;;;;12.13;1.50;;;10.50;99.90;;;;;;5112569;28;20294;-62
2022/09/18 01:18:14;;;;;;;10.35;1.40;;;10.40;99.90;;;;;;5112665;28;20043;-62
2022/09/18 01:21:12;;;;;;;15.98;3.25;;;10.40;99.90;;;;;;5112687;28;20106;-62
2022/09/18 01:23:56;;;;;;;13.98;1.60;;;10.30;99.90;;;;;;5112632;28;20050;-62
2022/09/18 01:26:45;;;;;;;11.80;2.70;;;10.30;99.90;;;;;;5112492;28;20051;-61
2022/09/18 01:29:24;;;;;;;8.55;1.27;;;10.30;99.90;;;;;;5060672;28;20095;-62
2022/09/18 01:32:07;;;;;;;10.85;1.88;;;10.40;99.90;;;;;;5112588;28;20071;-62
2022/09/18 01:34:39;;;;;;;12.60;1.83;;;10.50;99.90;;;;;;5112392;28;20097;-62
2022/09/18 01:37:43;;;;;;;12.90;2.50;;;10.70;99.90;;;;;;5112581;28;20039;-62
2022/09/18 01:40:38;;;;;;;14.75;1.58;;;10.80;99.90;;;;;;5073408;28;20056;-62
2022/09/18 01:43:10;;;;;;;12.52;2.60;;;10.90;99.90;;;;;;5080923;28;20076;-62
2022/09/18 01:45:49;;;;;;;16.42;1.80;;;11.00;99.90;;;;;;5090585;28;20588;-62
2022/09/18 01:48:26;;;;;;;10.30;1.45;;;11.10;99.90;;;;;;5091781;28;20035;-62
2022/09/18 01:50:58;;;;;;;12.60;2.42;;;11.10;99.90;;;;;;5074144;28;20044;-62
2022/09/18 01:53:29;;;;;;;9.32;1.75;;;11.10;99.90;;;;;;5091664;28;20055;-62
2022/09/18 01:56:10;;;;;;;16.55;3.13;;;11.10;99.90;;;;;;5091951;28;20047;-62
2022/09/18 01:58:36;;;;;;;10.07;1.90;;;11.10;99.90;;;;;;5092143;28;20051;-62
2022/09/18 02:01:08;;;;;;;12.10;1.48;;;11.10;99.90;;;;;;5092564;28;20040;-62
2022/09/18 02:03:57;;;;;;;12.30;2.08;;;11.10;99.90;;;;;;5096449;28;20491;-62
2022/09/18 02:06:32;;;;;;;13.05;2.22;;;11.10;99.90;;;;;;5096039;28;20081;-61
2022/09/18 02:09:00;;;;;;;11.48;2.28;;;11.10;99.90;;;;;;5096213;28;20044;-62
2022/09/18 02:11:26;;;;;;;12.25;1.80;;;11.10;99.90;;;;;;5095949;28;20046;-62
2022/09/18 02:14:13;;;;;;;21.90;2.22;;;11.10;99.90;;;;;;5095653;28;20118;-63
2022/09/18 02:16:48;;;;;;;13.40;1.88;;;11.20;99.90;;;;;;5095869;28;20437;-62
2022/09/18 02:19:16;;;;;;;15.45;2.13;;;11.10;99.90;;;;;;5095956;28;20032;-63
2022/09/18 02:21:45;;;;;;;11.63;2.50;;;11.10;99.90;;;;;;5095984;28;20082;-63
2022/09/18 02:24:14;;;;;;;12.32;2.35;;;11.10;99.90;;;;;;5077519;28;20067;-62
2022/09/18 02:26:41;;;;;;;15.15;1.88;;;11.20;99.90;;;;;;5095754;28;20039;-62
2022/09/18 02:29:09;;;;;;;9.82;1.67;;;11.20;99.90;;;;;;5095444;28;20454;-62
2022/09/18 02:31:37;;;;;;;13.68;2.50;;;11.20;99.90;;;;;;5095530;28;20115;-62
2022/09/18 02:34:03;;;;;;;11.98;1.65;;;11.20;99.90;;;;;;5095597;28;20043;-60
2022/09/18 02:37:04;;;;;;;14.07;1.85;;;11.20;99.90;;;;;;5095705;28;20048;-60
2022/09/18 02:39:32;;;;;;;16.33;2.10;;;11.20;99.90;;;;;;5095639;28;20036;-60
2022/09/18 02:42:16;;;;;;;9.98;1.42;;;11.20;99.90;;;;;;5095274;28;20047;-60
2022/09/18 02:44:55;;;;;;;10.10;1.55;;;11.30;99.90;;;;;;5095352;28;20032;-61
2022/09/18 02:47:40;;;;;;;11.15;1.98;;;11.30;99.90;;;;;;5095279;28;20075;-61
2022/09/18 02:50:24;;;;;;;10.77;1.50;;;11.30;99.90;;;;;;5095123;28;20570;-60
2022/09/18 02:53:05;;;;;;;11.10;2.08;;;11.30;99.90;;;;;;5095226;28;20051;-60
2022/09/18 02:55:50;;;;;;;14.85;1.58;;;11.30;99.90;;;;;;5095265;28;20529;-61
2022/09/18 02:58:27;;;;;;;11.68;1.90;;;11.20;99.90;;;;;;5094966;28;20111;-60
2022/09/18 03:00:57;;;;;;;11.57;2.28;;;11.20;99.90;;;;;;5095005;28;20036;-60
2022/09/18 03:03:28;;;;;;;9.93;1.52;;;11.00;99.90;;;;;;5095155;28;20157;-61
2022/09/18 03:05:56;;;;;;;12.07;1.67;;;11.10;99.90;;;;;;5094968;28;20400;-61
2022/09/18 03:08:22;;;;;;;13.55;1.90;;;11.00;99.90;;;;;;5076860;28;20212;-60
2022/09/18 03:10:48;;;;;;;12.13;1.40;;;10.90;99.90;;;;;;5094834;28;20395;-61
2022/09/18 03:13:14;;;;;;;13.35;2.05;;;10.60;99.90;;;;;;5094246;28;20036;-61
2022/09/18 03:15:40;;;;;;;9.55;1.30;;;10.40;99.90;;;;;;5095578;28;20133;-63
2022/09/18 03:18:06;;;;;;;9.30;1.45;;;10.30;99.90;;;;;;5095170;28;20033;-61
2022/09/18 03:20:31;;;;;;;7.28;1.30;;;10.20;99.90;;;;;;5095194;28;20445;-61
2022/09/18 03:22:57;;;;;;;10.27;1.13;;;10.20;99.90;;;;;;5094707;28;20377;-59
2022/09/18 03:25:22;;;;;;;8.35;1.25;;;10.10;99.90;;;;;;5076609;28;20385;-60
2022/09/18 03:27:52;;;;;;;7.97;1.50;;;10.00;99.90;;;;;;5094402;28;20036;-60
2022/09/18 03:30:18;;;;;;;10.57;1.30;;;10.00;99.90;;;;;;5094722;28;20043;-60
2022/09/18 03:32:43;;;;;;;13.57;2.13;;;9.90;99.90;;;;;;5094569;28;20125;-60
2022/09/18 03:35:09;;;;;;;12.02;1.40;;;10.00;99.90;;;;;;5094271;28;20423;-60
2022/09/18 03:37:35;;;;;;;8.60;1.50;;;10.00;99.90;;;;;;5094323;28;20032;-60
2022/09/18 03:40:00;;;;;;;8.70;1.17;;;10.00;99.90;;;;;;5094229;28;20544;-60
2022/09/18 03:42:26;;;;;;;8.68;1.10;;;10.00;99.90;;;;;;5094596;28;20081;-60
2022/09/18 03:44:52;;;;;;;11.65;1.65;;;10.10;99.90;;;;;;5093957;28;20048;-61
2022/09/18 03:47:17;;;;;;;15.90;1.70;;;10.00;99.90;;;;;;5094188;28;20055;-60
2022/09/18 03:49:43;;;;;;;12.80;1.60;;;10.00;99.90;;;;;;5094087;28;20044;-61
2022/09/18 03:52:08;;;;;;;20.48;2.22;;;10.20;99.90;;;;;;5094056;28;20051;-61
2022/09/18 03:54:34;;;;;;;16.98;3.50;;;10.10;99.90;;;;;;5093663;28;20095;-61
2022/09/18 03:57:00;;;;;;;10.57;1.48;;;10.10;99.90;;;;;;5075823;28;20050;-61
2022/09/18 03:59:25;;;;;;;13.05;1.55;;;10.20;99.90;;;;;;5094116;28;20445;-60
2022/09/18 04:01:51;;;;;;;17.00;1.90;;;10.20;99.90;;;;;;5075903;28;20040;-60
2022/09/18 04:04:17;;;;;;;12.25;1.65;;;10.30;99.90;;;;;;5093993;28;20068;-61
2022/09/18 04:06:42;;;;;;;11.32;1.52;;;10.30;99.90;;;;;;5093890;28;20089;-61
2022/09/18 04:09:08;;;;;;;17.70;2.55;;;10.30;99.90;;;;;;5093675;28;20050;-61
2022/09/18 04:11:34;;;;;;;13.00;1.50;;;10.40;99.90;;;;;;5093620;28;20403;-60
2022/09/18 04:13:59;;;;;;;9.80;1.50;;;10.20;99.90;;;;;;5075649;28;20044;-60
2022/09/18 04:16:25;;;;;;;9.80;1.13;;;10.40;99.90;;;;;;5075769;28;20040;-60
2022/09/18 04:18:50;;;;;;;13.70;1.67;;;10.40;99.90;;;;;;5075498;28;20426;-60
2022/09/18 04:21:16;;;;;;;11.00;2.42;;;10.30;99.90;;;;;;5093134;28;20040;-60
2022/09/18 04:23:42;;;;;;;14.07;2.42;;;10.30;99.90;;;;;;5092029;28;20460;-61
2022/09/18 04:26:09;;;;;;;8.98;1.40;;;10.20;99.90;;;;;;5093114;28;20403;-60
2022/09/18 04:28:36;;;;;;;10.57;1.58;;;10.30;99.90;;;;;;5093042;28;20054;-60
2022/09/18 04:31:02;;;;;;;12.80;2.95;;;10.30;99.90;;;;;;5093176;28;20090;-60
2022/09/18 04:33:27;;;;;;;8.30;1.35;;;10.40;99.90;;;;;;5093091;28;20047;-61
2022/09/18 04:35:53;;;;;;;11.32;1.95;;;10.40;99.90;;;;;;5093339;28;20036;-60
2022/09/18 04:38:26;;;;;;;9.05;1.10;;;10.20;99.90;;;;;;5092787;28;20040;-60
2022/09/18 04:40:56;;;;;;;10.77;2.22;;;10.30;99.90;;;;;;5084045;28;20040;-60
2022/09/18 04:43:23;;;;;;;9.38;1.55;;;10.20;99.90;;;;;;5113384;28;20040;-61
2022/09/18 04:45:48;;;;;;;8.52;1.92;;;10.20;99.90;;;;;;5113379;28;20031;-61
2022/09/18 04:48:15;;;;;;;8.02;1.95;;;10.20;99.90;;;;;;5113102;28;20038;-61
2022/09/18 04:50:41;;;;;;;15.52;2.03;;;10.30;99.90;;;;;;5113623;28;20039;-61
2022/09/18 04:53:07;;;;;;;9.32;1.30;;;10.20;99.90;;;;;;5112948;28;20051;-60
2022/09/18 04:55:33;;;;;;;11.80;1.30;;;10.20;99.90;;;;;;5094732;28;20105;-60
2022/09/18 04:57:58;;;;;;;8.73;1.13;;;10.30;99.90;;;;;;5112775;28;20031;-60
2022/09/18 05:00:24;;;;;;;8.73;1.17;;;10.30;99.90;;;;;;5113182;28;20540;-61
2022/09/18 05:02:50;;;;;;;8.95;1.30;;;10.30;99.90;;;;;;5112710;28;20028;-59
2022/09/18 05:05:16;;;;;;;13.55;1.50;;;10.20;99.90;;;;;;5112749;28;20055;-61
2022/09/18 05:07:42;;;;;;;13.75;1.42;;;10.20;99.90;;;;;;5112942;28;20039;-65
2022/09/18 05:10:09;;;;;;;8.30;1.20;;;10.20;99.90;;;;;;5113131;28;20149;-63
2022/09/18 05:12:38;;;;;;;5.10;1.67;;;10.10;99.90;;;;;;5113035;28;20088;-61
2022/09/18 05:15:04;;;;;;;5.35;0.90;;;10.10;99.90;;;;;;5112568;28;20121;-61
2022/09/18 05:17:31;;;;;;;4.13;0.90;;;10.10;99.90;;;;;;5094839;28;20047;-63
2022/09/18 05:19:57;;;;;;;5.50;0.90;;;9.90;99.90;;;;;;5112643;28;20479;-61
2022/09/18 05:22:23;;;;;;;6.78;1.67;;;9.80;99.90;;;;;;5112521;28;20050;-61
2022/09/18 05:24:49;;;;;;;5.80;0.85;;;9.80;99.90;;;;;;5112712;28;20121;-62
2022/09/18 05:27:15;;;;;;;4.40;0.82;;;9.80;99.90;;;;;;5112919;28;20051;-60
2022/09/18 05:29:40;;;;;;;11.38;1.40;;;9.80;99.90;;;;;;5112806;28;20085;-60
2022/09/18 05:32:06;;;;;;;10.38;1.40;;;9.80;99.90;;;;;;5112458;28;20092;-59
2022/09/18 05:34:32;;;;;;;13.52;1.98;;;9.80;99.90;;;;;;5112377;28;20044;-61
2022/09/18 05:36:58;;;;;;;10.00;1.13;;;10.00;99.90;;;;;;5112510;28;20039;-60
2022/09/18 05:39:23;;;;;;;10.38;1.35;;;9.90;99.90;;;;;;5075689;28;20043;-60
2022/09/18 05:41:50;;;;;;;11.35;1.48;;;10.00;99.90;;;;;;5090306;28;20053;-60
2022/09/18 05:44:17;;;;;;;4.95;1.05;;;10.20;99.90;;;;;;5112672;28;20066;-60
2022/09/18 05:46:42;;;;;;;9.55;1.25;;;10.20;99.90;;;;;;5112646;28;20044;-60
2022/09/18 05:49:08;;;;;;;10.15;1.58;;;10.20;99.90;;;;;;5112621;28;20043;-60
2022/09/18 05:51:33;;;;;;;7.53;1.20;;;10.20;99.90;;;;;;5112365;28;20364;-61
2022/09/18 05:53:59;;;;;;;8.05;1.52;;;10.40;99.90;;;;;;5093929;28;20118;-60
2022/09/18 05:56:26;;;;;;;13.32;2.45;;;10.30;99.90;;;;;;5112425;28;20163;-60
2022/09/18 05:58:53;;;;;;;9.18;1.92;;;10.30;99.90;;;;;;5112515;28;20040;-59
2022/09/18 06:01:18;;;;;;;9.38;1.40;;;10.40;99.90;;;;;;5112448;28;20057;-60
2022/09/18 06:03:44;;;;;;;8.07;1.40;;;10.50;99.90;;;;;;5112225;28;20483;-60
2022/09/18 06:06:09;;;;;;;13.40;1.88;;;10.60;99.90;;;;;;5112092;28;20036;-60
2022/09/18 06:08:35;;;;;;;14.63;1.60;;;10.40;99.90;;;;;;5112087;28;20118;-60
2022/09/18 06:11:01;;;;;;;11.32;2.63;;;10.50;99.90;;;;;;5112353;28;20047;-58
2022/09/18 06:13:27;;;;;;;9.10;1.67;;;10.50;99.90;;;;;;5112337;28;20042;-60
2022/09/18 06:15:53;;;;;;;10.25;1.55;;;10.50;99.90;;;;;;5112204;28;20360;-60
2022/09/18 06:18:19;;;;;;;11.90;2.17;;;10.50;99.90;;;;;;5112259;28;20118;-61
2022/09/18 06:20:54;;;;;;;5.57;1.00;;;10.50;99.90;;;;;;5112175;28;20126;-60
2022/09/18 06:23:22;;;;;;;5.40;0.93;;;10.50;99.90;;;;;;5112399;28;20072;-60
2022/09/18 06:25:47;;;;;;;6.72;0.90;;;10.40;99.90;;;;;;5112012;28;20047;-60
2022/09/18 06:28:13;;;;;;;6.13;1.40;;;10.50;99.90;;;;;;5112199;28;20036;-60
2022/09/18 06:30:39;;;;;;;6.38;1.67;;;10.40;99.90;;;;;;5112067;28;20031;-60
2022/09/18 06:33:06;;;;;;;7.05;0.90;;;10.40;99.90;;;;;;5111458;28;20071;-61
2022/09/18 06:35:33;;;;;;;4.80;0.90;;;10.40;99.90;;;;;;5110182;28;20065;-60
2022/09/18 06:38:03;;;;;;;4.82;0.90;;;10.50;99.90;;;;;;5085553;28;20047;-60
2022/09/18 06:40:30;;;;;;;7.85;1.02;;;10.50;99.90;;;;;;5090062;28;20112;-61
2022/09/18 06:42:57;;;;;;;5.47;2.17;;;10.50;99.90;;;;;;5089948;28;20168;-61
2022/09/18 06:45:24;;;;;;;10.48;1.02;;;10.60;99.90;;;;;;5089983;28;20051;-60
2022/09/18 06:47:53;;;;;;;7.43;0.98;;;10.60;99.90;;;;;;5091781;28;20043;-60
2022/09/18 06:50:23;;;;;;;4.53;1.05;;;10.60;99.90;;;;;;5093946;28;20081;-60
2022/09/18 06:52:49;;;;;;;7.18;1.00;;;10.70;99.90;;;;;;5093462;28;20051;-61
2022/09/18 06:55:16;;;;;;;12.20;1.10;;;10.70;99.90;;;;;;5093522;28;20399;-61
2022/09/18 06:57:42;;;;;;;10.07;1.08;;;10.60;99.90;;;;;;5092755;28;20553;-60
2022/09/18 07:00:09;;;;;;;9.50;1.35;;;10.70;99.90;;;;;;5093211;28;20040;-60
2022/09/18 07:02:36;;;;;;;9.88;1.10;;;10.50;99.90;;;;;;5093477;28;20093;-60
2022/09/18 07:05:02;;;;;;;6.43;1.20;;;10.60;99.90;;;;;;5093687;28;20071;-61
2022/09/18 07:07:28;;;;;;;7.68;0.95;;;10.60;99.90;;;;;;5093526;28;20051;-60
2022/09/18 07:09:54;;;;;;;5.57;0.90;;;10.50;99.90;;;;;;5093343;28;20044;-60
2022/09/18 07:12:19;;;;;;;7.10;0.88;;;10.60;99.90;;;;;;5093339;28;20071;-60
2022/09/18 07:14:45;;;;;;;6.85;0.80;;;10.50;99.90;;;;;;5092666;28;20083;-60
2022/09/18 07:17:11;;;;;;;8.52;0.98;;;10.50;99.90;;;;;;5100872;28;20102;-61
2022/09/18 07:19:37;;;;;;;8.10;1.10;;;10.50;99.90;;;;;;5094316;28;20036;-61
2022/09/18 07:22:03;;;;;;;5.82;0.90;;;10.60;99.90;;;;;;5093307;28;20438;-61
2022/09/18 07:24:29;;;;;;;6.22;0.90;;;10.50;99.90;;;;;;5093031;28;20480;-61
2022/09/18 07:26:56;;;;;;;13.52;1.40;;;10.60;99.90;;;;;;5093071;28;20060;-61
2022/09/18 07:29:22;;;;;;;10.85;1.60;;;10.60;99.90;;;;;;5092912;28;20040;-61
2022/09/18 07:31:47;;;;;;;8.48;1.27;;;10.50;99.90;;;;;;5093216;28;20487;-61
2022/09/18 07:34:13;;;;;;;8.00;1.10;;;10.50;99.90;;;;;;5092764;28;20136;-61
2022/09/18 07:36:39;;;;;;;8.30;1.60;;;10.50;99.90;;;;;;5074674;28;20040;-61
2022/09/18 07:39:04;;;;;;;6.43;1.27;;;10.60;99.90;;;;;;5092687;28;20055;-61
2022/09/18 07:41:30;;;;;;;11.98;1.33;;;10.60;99.90;;;;;;5092830;28;20491;-61
2022/09/18 07:43:56;;;;;;;9.65;1.52;;;10.60;99.90;;;;;;5092598;28;20047;-61
2022/09/18 07:46:21;;;;;;;8.75;1.20;;;10.60;99.90;;;;;;5092409;28;20036;-61
2022/09/18 07:48:47;;;;;;;10.52;2.00;;;10.60;99.90;;;;;;5074582;28;20032;-60
2022/09/18 07:51:13;;;;;;;7.82;1.30;;;10.70;99.90;;;;;;5092603;28;20082;-61
2022/09/18 07:53:40;;;;;;;8.43;1.25;;;10.70;99.90;;;;;;5111520;28;20051;-61
2022/09/18 07:56:09;;;;;;;8.98;1.48;;;10.80;99.90;;;;;;5112768;28;20644;-61
2022/09/18 07:58:36;;;;;;;12.05;1.67;;;10.60;99.90;;;;;;5110375;28;20059;-61
2022/09/18 08:01:03;;;;;;;10.25;1.65;;;10.50;99.90;;;;;;5113074;28;20133;-61
2022/09/18 08:03:29;;;;;;;11.38;1.48;;;10.70;99.90;;;;;;5112645;28;20046;-61
2022/09/18 08:05:55;;;;;;;8.07;1.58;;;10.60;99.90;;;;;;5112931;28;20048;-62
2022/09/18 08:08:21;;;;;;;7.93;1.52;;;10.60;99.90;;;;;;5112697;28;20112;-61
2022/09/18 08:10:47;;;;;;;7.82;1.52;;;10.50;99.90;;;;;;5112555;28;20471;-61
2022/09/18 08:13:13;;;;;;;11.23;1.75;;;10.50;99.90;;;;;;5112490;28;20065;-61
2022/09/18 08:15:41;;;;;;;10.75;1.92;;;10.50;99.90;;;;;;5112201;28;20372;-61
2022/09/18 08:18:09;;;;;;;11.73;1.40;;;10.60;99.90;;;;;;5112283;28;20552;-61
2022/09/18 08:20:36;;;;;;;8.68;1.50;;;10.40;99.90;;;;;;5112447;28;20035;-61
2022/09/18 08:23:03;;;;;;;11.93;1.13;;;10.50;99.90;;;;;;5112231;28;20040;-61
2022/09/18 08:25:29;;;;;;;7.30;1.30;;;10.40;99.90;;;;;;5112220;28;20050;-61
2022/09/18 08:28:02;;;;;;;7.18;1.20;;;10.20;99.90;;;;;;5112330;28;20051;-61
2022/09/18 08:30:28;;;;;;;9.07;1.10;;;10.40;99.90;;;;;;5112279;28;20119;-60
2022/09/18 08:33:01;;;;;;;10.10;1.13;;;10.40;99.90;;;;;;5112294;28;20067;-61
2022/09/18 08:35:29;;;;;;;7.20;1.30;;;10.40;99.90;;;;;;5112123;28;20051;-60
2022/09/18 08:37:55;;;;;;;8.18;1.10;;;10.30;99.90;;;;;;5105886;28;20521;-60
2022/09/18 08:40:47;;;;;;;10.27;1.40;;;10.50;99.90;;;;;;5095833;28;20031;-61
2022/09/18 08:43:33;;;;;;;15.23;1.40;;;10.30;99.90;;;;;;5111303;28;20568;-61
2022/09/18 08:46:10;;;;;;;11.52;1.70;;;10.50;99.90;;;;;;5112005;28;20456;-61
2022/09/18 08:49:00;;;;;;;10.60;2.15;;;10.30;99.90;;;;;;5111703;28;20031;-61
2022/09/18 08:51:43;;;;;;;13.88;1.60;;;10.30;99.90;;;;;;5111789;28;20483;-59
2022/09/18 08:54:46;;;;;;;10.95;1.35;;;10.40;99.90;;;;;;5111664;28;20074;-61
2022/09/18 08:57:41;;;;;;;9.57;1.50;;;10.40;99.90;;;;;;5111891;28;20039;-61
2022/09/18 09:00:21;;;;;;;9.43;1.23;;;10.30;99.90;;;;;;5111400;28;20127;-60
2022/09/18 09:02:49;;;;;;;17.73;2.60;;;10.20;99.90;;;;;;5111610;28;20118;-65
2022/09/18 09:05:20;;;;;;;13.48;2.38;;;10.30;99.90;;;;;;5111254;28;20039;-63
2022/09/18 09:08:02;;;;;;;9.25;1.42;;;10.00;99.90;;;;;;5111493;28;20521;-64
2022/09/18 09:10:33;;;;;;;8.88;1.67;;;10.10;99.90;;;;;;5110962;28;20047;-63
2022/09/18 09:13:29;;;;;;;9.25;1.45;;;10.00;99.90;;;;;;5111441;28;20061;-62
2022/09/18 09:16:15;;;;;;;13.30;3.03;;;10.00;99.90;;;;;;5111400;28;20517;-61
2022/09/18 09:19:12;;;;;;;10.95;1.30;;;9.90;99.90;;;;;;5107768;28;20035;-60
2022/09/18 09:21:41;;;;;;;13.18;1.90;;;10.20;99.90;;;;;;5083075;28;20054;-61
2022/09/18 09:24:27;;;;;;;10.57;1.80;;;10.10;99.90;;;;;;5111315;28;20044;-60
2022/09/18 09:26:55;;;;;;;12.05;1.98;;;10.30;99.90;;;;;;5111778;28;20371;-59
2022/09/18 09:29:29;;;;;;;10.90;1.70;;;10.30;99.90;;;;;;5111168;28;20055;-60
2022/09/18 09:32:04;;;;;;;12.15;2.42;;;10.30;99.90;;;;;;5092991;28;20164;-59
2022/09/18 09:34:36;;;;;;;12.93;1.70;;;10.10;99.90;;;;;;5110878;28;20052;-60
2022/09/18 09:37:08;;;;;;;12.07;2.00;;;10.20;99.90;;;;;;5092944;28;20043;-60
2022/09/18 09:39:44;;;;;;;12.27;2.00;;;10.20;99.90;;;;;;5072705;28;20047;-60
2022/09/18 09:42:15;;;;;;;12.68;1.92;;;10.20;99.90;;;;;;5109792;28;20036;-61
2022/09/18 09:44:53;;;;;;;18.30;2.72;;;10.50;99.90;;;;;;5110794;28;20119;-60
2022/09/18 09:47:42;;;;;;;12.02;1.63;;;10.40;99.90;;;;;;5110788;28;20118;-61
2022/09/18 09:50:08;;;;;;;9.93;1.60;;;10.50;99.90;;;;;;5109967;28;20051;-60
2022/09/18 09:52:39;;;;;;;10.02;1.60;;;10.40;99.90;;;;;;5110667;28;20479;-56
2022/09/18 09:55:22;;;;;;;12.50;1.80;;;10.50;99.90;;;;;;5110467;28;20052;-61
2022/09/18 09:57:56;;;;;;;;;;;10.80;99.90;;;;;;5111202;28;20273;-60
2022/09/18 10:00:22;;;;;;;13.73;2.03;;;10.80;99.90;;;;;;5110683;28;20298;-60
2022/09/18 10:03:01;;;;;;;14.68;2.65;;;10.80;99.90;;;;;;5110824;28;20042;-60
2022/09/18 10:05:46;;;;;;;13.27;1.88;;;10.60;99.90;;;;;;5110734;28;20072;-60
2022/09/18 10:08:36;;;;;;;15.10;2.30;;;10.90;99.90;;;;;;5092711;28;20056;-60
2022/09/18 10:11:07;;;;;;;14.25;2.00;;;11.00;99.90;;;;;;5109410;28;20051;-58
2022/09/18 10:13:54;;;;;;;11.30;1.52;;;11.00;99.90;;;;;;5110531;28;20092;-60
2022/09/18 10:16:34;;;;;;;9.95;1.92;;;11.00;99.90;;;;;;5110529;28;20552;-60
2022/09/18 10:19:00;;;;;;;12.70;3.03;;;11.10;99.90;;;;;;5110458;28;20079;-61
2022/09/18 10:21:30;;;;;;;9.70;2.13;;;11.00;99.90;;;;;;5110665;28;20392;-60
2022/09/18 10:24:11;;;;;;;13.13;2.08;;;11.20;99.90;;;;;;5114343;28;20043;-60
2022/09/18 10:26:43;;;;;;;15.30;1.80;;;11.30;99.90;;;;;;5114538;28;20533;-58
2022/09/18 10:29:09;;;;;;;13.50;2.38;;;11.20;99.90;;;;;;5114639;28;20054;-60
2022/09/18 10:31:45;;;;;;;12.23;1.73;;;11.30;99.90;;;;;;5114310;28;20088;-60
2022/09/18 10:34:41;;;;;;;13.15;1.90;;;11.40;99.90;;;;;;5114264;28;20100;-61
2022/09/18 10:37:13;;;;;;;9.30;1.63;;;11.60;99.90;;;;;;5114230;28;20031;-61
2022/09/18 10:39:47;;;;;;;10.15;1.33;;;11.70;99.90;;;;;;5094159;28;20043;-60
2022/09/18 10:42:17;;;;;;;8.48;1.20;;;11.70;99.90;;;;;;5113705;28;20441;-61
2022/09/18 10:44:49;;;;;;;7.93;0.93;;;11.80;99.90;;;;;;5114376;28;20202;-60
2022/09/18 10:47:30;;;;;;;8.82;1.95;;;11.80;99.90;;;;;;5114161;28;20048;-60
2022/09/18 10:50:16;;;;;;;9.35;1.20;;;12.00;99.90;;;;;;5114003;28;20070;-61
2022/09/18 10:52:52;;;;;;;9.38;1.15;;;12.00;99.90;;;;;;5113756;28;20035;-61
2022/09/18 10:55:24;;;;;;;10.75;1.45;;;12.10;99.90;;;;;;5113920;28;20126;-59
2022/09/18 10:57:50;;;;;;;;;;;12.20;99.90;;;;;;5114375;28;20046;-61
2022/09/18 11:00:18;;;;;;;12.82;1.55;;;12.30;99.90;;;;;;5114020;28;19916;-61
2022/09/18 11:02:48;;;;;;;8.75;1.42;;;12.50;99.90;;;;;;5114049;28;20104;-61
2022/09/18 11:05:37;;;;;;;9.02;1.60;;;12.60;99.90;;;;;;5113880;28;20043;-61
2022/09/18 11:08:18;;;;;;;7.13;1.00;;;12.80;99.90;;;;;;5098411;28;20044;-61
2022/09/18 11:10:49;;;;;;;7.77;1.20;;;12.90;99.90;;;;;;5114172;28;20113;-61
2022/09/18 11:13:24;;;;;;;6.93;1.15;;;13.00;99.90;;;;;;5095418;28;20039;-61
2022/09/18 11:15:55;;;;;;;11.07;2.70;;;13.00;99.90;;;;;;5113455;28;20459;-61
2022/09/18 11:18:23;;;;;;;6.68;1.10;;;13.10;99.90;;;;;;5113877;28;20046;-61
2022/09/18 11:20:50;;;;;;;11.13;1.70;;;13.10;99.90;;;;;;5113483;28;20031;-61
2022/09/18 11:23:32;;;;;;;11.13;2.50;;;13.10;99.90;;;;;;5113343;28;20028;-59
2022/09/18 11:26:10;;;;;;;7.88;1.10;;;13.10;99.90;;;;;;5113371;28;20541;-61
2022/09/18 11:28:36;;;;;;;8.50;1.30;;;13.20;99.90;;;;;;5113262;28;20047;-61
2022/09/18 11:31:05;;;;;;;11.63;1.20;;;13.20;99.90;;;;;;5113312;28;20042;-61
2022/09/18 11:33:46;;;;;;;8.60;1.20;;;13.20;99.90;;;;;;5112976;28;20043;-61
2022/09/18 11:36:14;;;;;;;10.95;2.17;;;13.30;99.90;;;;;;5113395;28;20039;-61
2022/09/18 11:38:43;;;;;;;5.97;1.30;;;13.30;99.90;;;;;;5100486;28;20086;-61
2022/09/18 11:41:11;;;;;;;9.98;1.50;;;13.40;99.90;;;;;;5102571;28;20040;-61
2022/09/18 11:43:40;;;;;;;6.80;1.30;;;13.40;99.90;;;;;;5112807;28;20483;-61
2022/09/18 11:46:30;;;;;;;10.95;1.50;;;13.50;99.90;;;;;;5113062;28;20445;-60
2022/09/18 11:48:59;;;;;;;11.45;1.27;;;13.40;99.90;;;;;;5113056;28;20445;-61
2022/09/18 11:51:35;;;;;;;6.72;1.00;;;13.50;99.90;;;;;;5113051;28;20046;-60
2022/09/18 11:54:07;;;;;;;8.93;1.17;;;13.50;99.90;;;;;;5094093;28;20488;-61
2022/09/18 11:56:54;;;;;;;8.98;1.50;;;13.50;99.90;;;;;;5112882;28;20038;-61
2022/09/18 11:59:41;;;;;;;7.00;1.20;;;13.50;99.90;;;;;;5112556;28;20399;-61
2022/09/18 12:02:31;;;;;;;11.13;1.40;;;13.50;99.90;;;;;;5091824;28;20110;-61
2022/09/18 12:05:17;;;;;;;9.30;1.23;;;13.50;99.90;;;;;;5092238;28;20127;-61
2022/09/18 12:08:03;;;;;;;8.90;1.50;;;13.50;99.90;;;;;;5092279;28;20113;-61
2022/09/18 12:10:55;;;;;;;9.60;1.10;;;13.50;99.90;;;;;;5033047;28;20411;-60
2022/09/18 12:13:40;;;;;;;11.02;1.42;;;13.50;99.90;;;;;;5087214;28;20059;-61
2022/09/18 12:16:20;;;;;;;10.15;1.45;;;13.50;99.90;;;;;;5091954;28;20078;-62
2022/09/18 12:18:52;;;;;;;7.60;1.30;;;13.40;99.90;;;;;;5091861;28;20122;-61
2022/09/18 12:21:25;;;;;;;8.20;1.27;;;13.40;99.90;;;;;;5091840;28;20039;-61
2022/09/18 12:23:50;;;;;;;6.43;1.10;;;13.30;99.90;;;;;;5091967;28;20044;-60
2022/09/18 12:26:31;;;;;;;9.25;1.23;;;13.20;99.90;;;;;;5095793;28;20036;-60
2022/09/18 12:29:19;;;;;;;7.85;1.25;;;13.30;99.90;;;;;;5101271;28;20119;-61
2022/09/18 12:32:02;;;;;;;6.57;1.48;;;13.30;99.90;;;;;;5100375;28;20032;-61
2022/09/18 12:34:47;;;;;;;8.35;1.17;;;13.40;99.90;;;;;;5091955;28;20541;-61
2022/09/18 12:37:21;;;;;;;8.70;1.17;;;13.30;99.90;;;;;;5091236;28;20403;-61
2022/09/18 12:40:03;;;;;;;6.47;1.30;;;13.20;99.90;;;;;;5099434;28;20050;-61
2022/09/18 12:42:29;;;;;;;6.65;0.98;;;13.20;99.90;;;;;;5091724;28;20047;-61
2022/09/18 12:45:15;;;;;;;7.25;1.17;;;13.40;99.90;;;;;;5090649;28;20059;-61
2022/09/18 12:48:04;;;;;;;7.65;1.40;;;13.20;99.90;;;;;;5093776;28;20111;-61
2022/09/18 12:51:00;;;;;;;5.55;1.02;;;13.30;99.90;;;;;;5102303;28;20039;-59
2022/09/18 12:53:53;;;;;;;9.27;1.45;;;13.30;99.90;;;;;;5099476;28;20055;-61
2022/09/18 12:56:41;;;;;;;6.55;1.35;;;13.40;99.90;;;;;;5078065;28;20391;-61
2022/09/18 12:59:41;;;;;;;4.93;0.88;;;13.40;99.90;;;;;;5111840;28;20039;-61
2022/09/18 13:02:40;;;;;;;8.93;1.58;;;13.50;99.90;;;;;;5111674;28;20042;-61
2022/09/18 13:05:17;;;;;;;10.52;1.52;;;13.50;99.90;;;;;;5106045;28;20448;-61
2022/09/18 13:08:00;;;;;;;9.73;1.52;;;13.60;99.90;;;;;;5111452;28;20050;-61
2022/09/18 13:10:28;;;;;;;7.07;1.20;;;13.70;99.90;;;;;;5111448;28;20055;-61